Аэропорт: Сургут. Сургут

ICAO: USRR

METAR:
2020-06-02 07:30:00
USRR 020730Z 32005MPS 290V350 9999 SCT030CB 10/03 Q1009 R25/290050 NOSIG RMK QFE752
METAR:
2020-06-02 04:55:00
TAF USRR 020455Z 0206/0306 33006G13MPS 9999 SCT020CB TEMPO 0206/0218 6000 -SHRA BKN016CB